createdAt,value
2019-04-06T00:01:47.443Z,80.85
2019-04-06T00:04:14.799Z,80.42
2019-04-06T00:06:41.941Z,80.94
2019-04-06T00:09:09.387Z,81.14
2019-04-06T00:11:36.772Z,81.05
2019-04-06T00:14:04.272Z,81.89
2019-04-06T00:16:31.390Z,82.52
2019-04-06T00:18:58.646Z,82.37
2019-04-06T00:21:25.787Z,82.26
2019-04-06T00:23:52.973Z,82.40
2019-04-06T00:26:20.233Z,81.51
2019-04-06T00:28:47.569Z,81.98
2019-04-06T00:31:37.152Z,82.57
2019-04-06T00:34:04.511Z,81.85
2019-04-06T00:36:31.805Z,82.28
2019-04-06T00:38:59.089Z,82.41
2019-04-06T00:41:26.722Z,81.99
2019-04-06T00:43:53.997Z,82.03
2019-04-06T00:46:21.170Z,81.21
2019-04-06T00:48:48.434Z,82.27
2019-04-06T00:51:15.610Z,81.71
2019-04-06T00:53:42.844Z,81.24
2019-04-06T00:56:10.204Z,80.65
2019-04-06T00:58:37.550Z,80.73
2019-04-06T01:01:05.005Z,80.37
2019-04-06T01:03:32.381Z,80.16
2019-04-06T01:05:59.623Z,80.66
2019-04-06T01:08:26.885Z,80.40
2019-04-06T01:10:54.065Z,80.24
2019-04-06T01:13:21.335Z,82.42
2019-04-06T01:15:48.854Z,82.70
2019-04-06T01:18:16.265Z,81.66
2019-04-06T01:20:43.546Z,82.63
2019-04-06T01:23:11.007Z,81.96
2019-04-06T01:25:38.258Z,83.03
2019-04-06T01:28:05.400Z,82.13
2019-04-06T01:30:32.545Z,82.30
2019-04-06T01:33:00.000Z,81.99
2019-04-06T01:35:27.275Z,81.91
2019-04-06T01:37:54.432Z,80.90
2019-04-06T01:40:21.745Z,80.53
2019-04-06T01:42:49.165Z,80.43
2019-04-06T01:45:16.539Z,81.51
2019-04-06T01:47:43.705Z,80.44
2019-04-06T01:50:11.260Z,80.97
2019-04-06T01:52:38.508Z,80.57
2019-04-06T01:55:06.052Z,80.96
2019-04-06T01:57:33.308Z,81.31
2019-04-06T02:00:00.506Z,80.66
2019-04-06T02:02:30.119Z,80.61
2019-04-06T02:04:57.529Z,81.63
2019-04-06T02:07:25.003Z,80.72
2019-04-06T02:09:52.318Z,80.91
2019-04-06T02:12:19.503Z,81.42
2019-04-06T02:14:46.862Z,81.99
2019-04-06T02:17:14.268Z,81.69
2019-04-06T02:19:41.533Z,82.59
2019-04-06T02:22:08.649Z,80.91
2019-04-06T02:24:35.900Z,82.22
2019-04-06T02:27:03.368Z,80.74
2019-04-06T02:29:30.647Z,80.13
2019-04-06T02:32:16.325Z,81.02
2019-04-06T02:35:02.113Z,82.75
2019-04-06T02:37:45.994Z,82.92
2019-04-06T02:40:28.944Z,82.38
2019-04-06T02:43:08.806Z,82.11
2019-04-06T02:45:36.057Z,82.69
2019-04-06T02:48:03.658Z,81.59
2019-04-06T02:50:30.973Z,82.22
2019-04-06T02:52:58.374Z,82.54
2019-04-06T02:55:25.621Z,81.54
2019-04-06T02:57:52.767Z,82.97
2019-04-06T03:00:20.130Z,82.16
2019-04-06T03:02:47.489Z,81.90
2019-04-06T03:05:15.070Z,80.74
2019-04-06T03:07:42.406Z,82.55
2019-04-06T03:10:10.384Z,82.99
2019-04-06T03:12:38.190Z,83.75
2019-04-06T03:15:06.719Z,83.40
2019-04-06T03:17:33.972Z,83.68
2019-04-06T03:20:01.279Z,82.55
2019-04-06T03:22:28.678Z,82.83
2019-04-06T03:24:55.831Z,83.01
2019-04-06T03:27:23.268Z,82.90
2019-04-06T03:29:58.255Z,82.56
2019-04-06T03:32:19.893Z,82.69
2019-04-06T03:34:47.164Z,84.05
2019-04-06T03:37:14.412Z,83.54
2019-04-06T03:39:41.563Z,83.93
2019-04-06T03:42:10.790Z,84.01
2019-04-06T03:44:37.795Z,83.70
2019-04-06T03:47:05.057Z,84.31
2019-04-06T03:49:32.316Z,83.76
2019-04-06T03:52:00.900Z,82.27
2019-04-06T03:54:28.053Z,83.27
2019-04-06T03:56:55.333Z,82.26
2019-04-06T03:59:22.751Z,81.78
2019-04-06T04:01:49.938Z,81.65
2019-04-06T04:04:17.106Z,81.17
2019-04-06T04:06:44.468Z,81.82
2019-04-06T04:09:11.917Z,80.33
2019-04-06T04:11:39.136Z,80.58
2019-04-06T04:14:06.454Z,80.29
2019-04-06T04:16:33.645Z,79.81
2019-04-06T04:19:00.832Z,79.80
2019-04-06T04:21:28.336Z,79.40
2019-04-06T04:23:56.666Z,79.17
2019-04-06T04:26:23.927Z,79.24
2019-04-06T04:28:51.167Z,79.55
2019-04-06T04:31:18.623Z,79.42
2019-04-06T04:33:45.989Z,79.23
2019-04-06T04:36:13.494Z,78.85
2019-04-06T04:38:40.776Z,78.82
2019-04-06T04:41:08.019Z,78.69
2019-04-06T04:43:35.181Z,79.03
2019-04-06T04:46:02.557Z,80.32
2019-04-06T04:48:30.100Z,81.29
2019-04-06T04:50:57.552Z,82.02
2019-04-06T04:53:24.716Z,82.61
2019-04-06T04:55:52.233Z,82.55
2019-04-06T04:58:19.789Z,83.71
2019-04-06T05:00:47.054Z,83.75
2019-04-06T05:03:14.525Z,84.73
2019-04-06T05:05:41.855Z,83.88
2019-04-06T05:08:09.037Z,84.27
2019-04-06T05:10:36.450Z,83.78
2019-04-06T05:13:03.841Z,83.31
2019-04-06T05:16:19.343Z,84.48
2019-04-06T05:18:47.022Z,85.68
2019-04-06T05:21:14.403Z,85.78
2019-04-06T05:23:41.566Z,86.49
2019-04-06T05:26:09.136Z,84.21
2019-04-06T05:28:36.297Z,85.40
2019-04-06T05:31:04.560Z,82.77
2019-04-06T05:33:31.976Z,81.46
2019-04-06T05:35:59.587Z,85.05
2019-04-06T05:38:27.854Z,85.32
2019-04-06T05:40:55.239Z,85.88
2019-04-06T05:43:22.688Z,86.19
2019-04-06T05:45:49.994Z,83.53
2019-04-06T05:48:17.207Z,82.75
2019-04-06T05:50:44.788Z,84.43
2019-04-06T05:53:12.225Z,84.88
2019-04-06T05:55:39.399Z,85.52
2019-04-06T05:58:09.841Z,84.79
2019-04-06T06:00:39.935Z,84.70
2019-04-06T06:03:05.566Z,83.18
2019-04-06T06:05:33.032Z,84.60
2019-04-06T06:08:00.159Z,83.51
2019-04-06T06:10:27.351Z,83.67
2019-04-06T06:12:54.517Z,83.29
2019-04-06T06:15:21.775Z,84.43
2019-04-06T06:17:48.920Z,83.60
2019-04-06T06:20:16.988Z,83.50
2019-04-06T06:22:44.315Z,82.84
2019-04-06T06:25:11.787Z,83.28
2019-04-06T06:27:39.181Z,82.76
2019-04-06T06:30:07.793Z,84.55
2019-04-06T06:32:35.214Z,83.29
2019-04-06T06:35:03.248Z,83.31
2019-04-06T06:37:30.636Z,84.28
2019-04-06T06:39:57.921Z,83.18
2019-04-06T06:42:25.050Z,83.92
2019-04-06T06:44:52.212Z,83.91
2019-04-06T06:47:19.944Z,83.51
2019-04-06T06:49:48.763Z,83.62
2019-04-06T06:52:16.157Z,84.01
2019-04-06T06:54:43.629Z,83.22
2019-04-06T06:57:10.993Z,83.28
2019-04-06T06:59:38.265Z,84.88
2019-04-06T07:02:05.551Z,83.06
2019-04-06T07:04:32.821Z,83.57
2019-04-06T07:07:00.065Z,83.23
2019-04-06T07:09:27.574Z,82.15
2019-04-06T07:11:54.875Z,82.93
2019-04-06T07:14:22.047Z,82.39
2019-04-06T07:16:49.451Z,83.06
2019-04-06T07:19:16.594Z,82.94
2019-04-06T07:21:43.929Z,82.98
2019-04-06T07:24:11.219Z,81.69
2019-04-06T07:26:41.050Z,82.16
2019-04-06T07:29:07.731Z,82.04
2019-04-06T07:31:35.189Z,80.36
2019-04-06T07:34:03.156Z,79.59
2019-04-06T07:36:30.427Z,79.92
2019-04-06T07:38:58.083Z,79.90
2019-04-06T07:41:25.398Z,78.09
2019-04-06T07:43:52.795Z,80.07
2019-04-06T07:46:20.127Z,79.28
2019-04-06T07:48:47.610Z,78.68
2019-04-06T07:51:15.076Z,78.10
2019-04-06T07:53:42.317Z,77.49
2019-04-06T07:56:10.961Z,77.77
2019-04-06T07:58:47.863Z,76.98
2019-04-06T08:01:07.380Z,74.30
2019-04-06T08:03:34.552Z,74.58
2019-04-06T08:06:01.918Z,71.36
2019-04-06T08:08:29.585Z,72.51
2019-04-06T08:10:57.111Z,72.29
2019-04-06T08:13:24.410Z,71.82
2019-04-06T08:15:51.754Z,71.59
2019-04-06T08:18:19.066Z,66.81
2019-04-06T08:20:46.257Z,70.46
2019-04-06T08:23:13.641Z,66.15
2019-04-06T08:25:41.401Z,67.58
2019-04-06T08:28:08.802Z,65.52
2019-04-06T08:30:44.717Z,62.73
2019-04-06T08:33:05.115Z,65.88
2019-04-06T08:35:32.532Z,64.24
2019-04-06T08:37:59.791Z,59.89
2019-04-06T08:40:26.939Z,63.08
2019-04-06T08:42:54.521Z,60.53
2019-04-06T08:45:22.272Z,59.45
2019-04-06T08:47:49.687Z,60.99
2019-04-06T08:50:17.218Z,59.50
2019-04-06T08:52:44.579Z,57.41
2019-04-06T08:55:11.918Z,56.75
2019-04-06T08:57:39.196Z,54.93
2019-04-06T09:00:07.256Z,54.02
2019-04-06T09:02:34.677Z,54.61
2019-04-06T09:05:02.229Z,49.93
2019-04-06T09:07:29.621Z,52.58
2019-04-06T09:09:56.971Z,50.84
2019-04-06T09:12:24.414Z,51.50
2019-04-06T09:14:52.234Z,47.21
2019-04-06T09:17:20.369Z,46.36
2019-04-06T09:19:47.537Z,41.92
2019-04-06T09:22:20.774Z,50.08
2019-04-06T09:24:48.146Z,47.36
2019-04-06T09:27:15.765Z,40.56
2019-04-06T09:29:43.113Z,41.22
2019-04-06T09:32:10.386Z,45.69
2019-04-06T09:34:37.694Z,44.40
2019-04-06T09:37:04.977Z,44.69
2019-04-06T09:39:32.570Z,43.27
2019-04-06T09:42:00.178Z,43.25
2019-04-06T09:44:48.183Z,39.08
2019-04-06T09:47:22.956Z,42.60
2019-04-06T09:49:57.845Z,41.21
2019-04-06T09:52:44.855Z,36.50
2019-04-06T09:55:23.944Z,41.76
2019-04-06T09:58:09.626Z,39.24
2019-04-06T10:00:52.841Z,40.69
2019-04-06T10:03:51.708Z,40.83
2019-04-06T10:06:38.638Z,41.78
2019-04-06T10:09:18.154Z,40.42
2019-04-06T10:12:17.010Z,40.97
2019-04-06T10:14:57.587Z,39.83
2019-04-06T10:17:59.649Z,40.66
2019-04-06T10:20:43.198Z,40.68
2019-04-06T10:23:18.018Z,40.05
2019-04-06T10:25:53.443Z,37.54
2019-04-06T10:28:37.599Z,38.59
2019-04-06T10:31:12.540Z,39.48
2019-04-06T10:33:59.496Z,37.56
2019-04-06T10:36:45.075Z,39.56
2019-04-06T10:39:20.619Z,39.18
2019-04-06T10:42:06.090Z,39.14
2019-04-06T10:44:40.082Z,39.66
2019-04-06T10:47:30.110Z,39.47
2019-04-06T10:50:15.781Z,41.03
2019-04-06T10:53:16.553Z,38.62
2019-04-06T10:56:12.717Z,39.20
2019-04-06T10:58:50.549Z,35.74
2019-04-06T11:01:36.380Z,37.89
2019-04-06T11:04:18.351Z,36.92
2019-04-06T11:07:01.259Z,37.86
2019-04-06T11:09:51.031Z,37.80
2019-04-06T11:12:36.400Z,36.89
2019-04-06T11:15:22.965Z,32.09
2019-04-06T11:18:18.659Z,35.98
2019-04-06T11:20:53.506Z,34.17
2019-04-06T11:23:29.459Z,33.77
2019-04-06T11:26:14.639Z,34.24
2019-04-06T11:29:01.551Z,34.04
2019-04-06T11:31:40.388Z,33.76
2019-04-06T11:34:26.079Z,33.21
2019-04-06T11:37:09.792Z,32.88
2019-04-06T11:39:47.670Z,33.76
2019-04-06T11:42:37.198Z,33.53
2019-04-06T11:45:26.709Z,31.26
2019-04-06T11:48:19.321Z,33.59
2019-04-06T11:51:04.987Z,33.23
2019-04-06T11:53:52.116Z,31.27
2019-04-06T11:56:46.040Z,32.37
2019-04-06T11:59:20.735Z,31.76
2019-04-06T12:01:56.784Z,32.68
2019-04-06T12:04:30.391Z,31.88
2019-04-06T12:07:26.170Z,33.74
2019-04-06T12:10:07.907Z,33.76
2019-04-06T12:13:04.030Z,31.08
2019-04-06T12:15:36.170Z,33.47
2019-04-06T12:18:20.657Z,32.76
2019-04-06T12:21:01.187Z,33.84
2019-04-06T12:23:52.803Z,32.76
2019-04-06T12:26:28.046Z,32.49
2019-04-06T12:29:21.208Z,33.41
2019-04-06T12:32:03.590Z,30.84
2019-04-06T12:34:56.571Z,34.68
2019-04-06T12:37:38.003Z,31.80
2019-04-06T12:40:28.715Z,32.94
2019-04-06T12:43:27.026Z,34.80
2019-04-06T12:46:26.209Z,36.33
2019-04-06T12:49:11.613Z,32.77
2019-04-06T12:52:07.324Z,33.32
2019-04-06T12:54:54.647Z,33.31
2019-04-06T12:57:39.822Z,32.70
2019-04-06T13:00:26.110Z,32.73
2019-04-06T13:03:04.950Z,33.11
2019-04-06T13:06:06.821Z,35.70
2019-04-06T13:08:56.764Z,35.18
2019-04-06T13:11:43.576Z,37.16
2019-04-06T13:14:19.361Z,36.55
2019-04-06T13:17:05.375Z,34.28
2019-04-06T13:20:01.204Z,33.36
2019-04-06T13:22:50.836Z,35.41
2019-04-06T13:25:43.387Z,34.96
2019-04-06T13:28:32.385Z,31.72
2019-04-06T13:31:19.185Z,32.40
2019-04-06T13:34:10.180Z,35.06
2019-04-06T13:36:47.575Z,33.62
2019-04-06T13:39:34.552Z,33.64
2019-04-06T13:42:24.500Z,34.89
2019-04-06T13:45:23.647Z,33.26
2019-04-06T13:48:13.155Z,37.00
2019-04-06T13:50:46.217Z,37.40
2019-04-06T13:53:20.580Z,35.55
2019-04-06T13:55:58.026Z,35.86
2019-04-06T13:58:47.829Z,37.90
2019-04-06T14:01:40.742Z,36.67
2019-04-06T14:04:30.813Z,38.18
2019-04-06T14:07:04.823Z,38.68
2019-04-06T14:09:40.473Z,35.25
2019-04-06T14:12:35.058Z,35.84
2019-04-06T14:15:24.838Z,38.82
2019-04-06T14:18:02.522Z,38.28
2019-04-06T14:20:37.147Z,37.89
2019-04-06T14:23:21.204Z,37.90
2019-04-06T14:26:07.196Z,39.08
2019-04-06T14:28:52.912Z,35.86
2019-04-06T14:31:38.530Z,38.46
2019-04-06T14:34:19.717Z,39.21
2019-04-06T14:36:59.773Z,38.94
2019-04-06T14:39:52.966Z,37.86
2019-04-06T14:42:31.529Z,38.69
2019-04-06T14:45:05.130Z,38.66
2019-04-06T14:48:10.513Z,38.68
2019-04-06T14:50:56.145Z,37.08
2019-04-06T14:53:32.676Z,37.72
2019-04-06T14:56:28.801Z,38.48
2019-04-06T14:59:06.914Z,38.61
2019-04-06T15:01:57.922Z,37.47
2019-04-06T15:04:37.176Z,37.53
2019-04-06T15:07:24.231Z,36.94
2019-04-06T15:10:17.282Z,39.11
2019-04-06T15:13:02.583Z,38.04
2019-04-06T15:15:48.109Z,38.73
2019-04-06T15:18:21.967Z,37.87
2019-04-06T15:21:08.677Z,37.92
2019-04-06T15:23:54.064Z,38.56
2019-04-06T15:26:39.505Z,37.38
2019-04-06T15:29:16.145Z,36.97
2019-04-06T15:31:57.622Z,36.15
2019-04-06T15:34:40.582Z,38.25
2019-04-06T15:37:15.883Z,38.08
2019-04-06T15:40:21.536Z,37.90
2019-04-06T15:43:04.125Z,36.54
2019-04-06T15:45:52.388Z,38.26
2019-04-06T15:48:38.397Z,39.08
2019-04-06T15:51:27.872Z,37.59
2019-04-06T15:54:10.262Z,38.33
2019-04-06T15:57:15.560Z,38.44
2019-04-06T16:00:08.695Z,38.84
2019-04-06T16:02:54.662Z,38.86
2019-04-06T16:05:42.450Z,40.24
2019-04-06T16:08:29.712Z,38.84
2019-04-06T16:11:22.677Z,39.22
2019-04-06T16:13:58.154Z,40.79
2019-04-06T16:17:00.209Z,40.44
2019-04-06T16:19:43.118Z,40.19
2019-04-06T16:22:22.061Z,38.98
2019-04-06T16:24:57.687Z,39.31
2019-04-06T16:27:38.779Z,39.56
2019-04-06T16:30:15.343Z,39.87
2019-04-06T16:32:58.470Z,39.60
2019-04-06T16:35:57.406Z,40.50
2019-04-06T16:38:40.267Z,41.40
2019-04-06T16:41:35.925Z,41.68
2019-04-06T16:44:22.967Z,41.53
2019-04-06T16:47:08.447Z,41.70
2019-04-06T16:49:58.008Z,41.44
2019-04-06T16:52:36.664Z,42.91
2019-04-06T16:55:14.646Z,41.79
2019-04-06T16:58:00.448Z,42.39
2019-04-06T17:00:51.012Z,42.96
2019-04-06T17:03:40.855Z,43.09
2019-04-06T17:06:19.809Z,43.76
2019-04-06T17:09:00.322Z,42.83
2019-04-06T17:11:46.260Z,43.88
2019-04-06T17:14:36.041Z,44.82
2019-04-06T17:17:32.555Z,43.73
2019-04-06T17:20:19.507Z,44.61
2019-04-06T17:23:00.172Z,45.24
2019-04-06T17:25:59.282Z,45.15
2019-04-06T17:28:45.771Z,44.91
2019-04-06T17:31:44.722Z,45.85
2019-04-06T17:34:53.446Z,45.57
2019-04-06T17:37:34.005Z,45.48
2019-04-06T17:40:29.913Z,45.80
2019-04-06T17:43:18.938Z,46.19
2019-04-06T17:46:08.468Z,46.28
2019-04-06T17:48:55.658Z,46.63
2019-04-06T17:51:41.345Z,46.97
2019-04-06T17:54:28.269Z,47.13
2019-04-06T17:57:20.414Z,47.38
2019-04-06T18:00:00.696Z,47.91
2019-04-06T18:02:50.234Z,48.18
2019-04-06T18:05:36.388Z,48.46
2019-04-06T18:08:26.666Z,48.77
2019-04-06T18:11:16.637Z,49.52
2019-04-06T18:13:50.064Z,49.70
2019-04-06T18:16:20.180Z,50.47
2019-04-06T18:18:47.651Z,51.04
2019-04-06T18:21:15.410Z,50.26
2019-04-06T18:23:42.920Z,51.12
2019-04-06T18:26:10.309Z,51.74
2019-04-06T18:28:37.806Z,52.19
2019-04-06T18:31:30.613Z,52.73
2019-04-06T18:33:58.036Z,53.49
2019-04-06T18:36:33.695Z,53.63
2019-04-06T18:39:05.079Z,54.35
2019-04-06T18:41:32.303Z,54.77
2019-04-06T18:43:59.450Z,54.17
2019-04-06T18:46:27.390Z,54.94
2019-04-06T18:48:55.125Z,55.58
2019-04-06T18:51:22.518Z,55.20
2019-04-06T18:53:50.208Z,55.92
2019-04-06T18:56:17.719Z,55.75
2019-04-06T18:58:44.882Z,56.52
2019-04-06T19:01:12.957Z,56.71
2019-04-06T19:03:40.546Z,56.34
2019-04-06T19:06:07.923Z,56.98
2019-04-06T19:08:36.501Z,56.97
2019-04-06T19:11:04.027Z,57.38
2019-04-06T19:13:31.314Z,56.88
2019-04-06T19:15:58.494Z,57.28
2019-04-06T19:18:25.631Z,58.51
2019-04-06T19:20:53.707Z,57.93
2019-04-06T19:23:21.350Z,58.80
2019-04-06T19:25:48.766Z,57.11
2019-04-06T19:28:16.766Z,57.57
2019-04-06T19:30:44.520Z,56.71
2019-04-06T19:33:22.681Z,57.24
2019-04-06T19:35:40.891Z,57.86
2019-04-06T19:38:08.644Z,58.13
2019-04-06T19:40:35.967Z,58.86
2019-04-06T19:43:03.428Z,59.88
2019-04-06T19:45:30.577Z,58.60
2019-04-06T19:47:58.364Z,59.60
2019-04-06T19:50:25.970Z,62.05
2019-04-06T19:52:53.681Z,60.28
2019-04-06T19:55:21.353Z,59.74
2019-04-06T19:57:48.751Z,57.98
2019-04-06T20:00:17.074Z,58.30
2019-04-06T20:02:44.738Z,58.49
2019-04-06T20:05:12.392Z,59.28
2019-04-06T20:07:39.894Z,59.59
2019-04-06T20:10:08.471Z,59.92
2019-04-06T20:12:36.114Z,62.32
2019-04-06T20:15:06.256Z,59.99
2019-04-06T20:17:33.731Z,61.38
2019-04-06T20:20:01.088Z,62.64
2019-04-06T20:22:28.447Z,61.81
2019-04-06T20:24:55.615Z,60.86
2019-04-06T20:27:23.266Z,61.37
2019-04-06T20:29:50.929Z,58.76
2019-04-06T20:32:18.717Z,58.79
2019-04-06T20:34:46.122Z,59.23
2019-04-06T20:37:13.835Z,58.43
2019-04-06T20:39:41.472Z,57.61
2019-04-06T20:42:08.916Z,60.48
2019-04-06T20:44:36.080Z,58.38
2019-04-06T20:47:04.173Z,57.91
2019-04-06T20:49:32.002Z,59.80
2019-04-06T20:51:59.665Z,58.78
2019-04-06T20:54:27.275Z,58.42
2019-04-06T20:56:57.975Z,59.80
2019-04-06T20:59:24.097Z,58.79
2019-04-06T21:01:51.426Z,59.57
2019-04-06T21:04:18.794Z,60.06
2019-04-06T21:06:46.039Z,60.29
2019-04-06T21:09:14.106Z,60.21
2019-04-06T21:11:41.490Z,61.08
2019-04-06T21:14:08.986Z,61.60
2019-04-06T21:16:36.400Z,60.77
2019-04-06T21:19:03.839Z,63.83
2019-04-06T21:21:31.459Z,63.66
2019-04-06T21:23:59.398Z,64.37
2019-04-06T21:26:26.876Z,60.69
2019-04-06T21:28:54.232Z,60.37
2019-04-06T21:31:21.701Z,61.95
2019-04-06T21:33:49.203Z,60.88
2019-04-06T21:36:17.451Z,60.63
2019-04-06T21:38:44.678Z,60.66
2019-04-06T21:41:11.921Z,61.13
2019-04-06T21:43:39.086Z,60.65
2019-04-06T21:46:06.719Z,60.36
2019-04-06T21:48:33.909Z,60.94
2019-04-06T21:51:01.711Z,62.06
2019-04-06T21:53:29.191Z,62.45
2019-04-06T21:56:03.374Z,61.29
2019-04-06T21:58:25.783Z,64.33
2019-04-06T22:00:55.428Z,65.18
2019-04-06T22:03:23.415Z,66.56
2019-04-06T22:05:51.072Z,68.48
2019-04-06T22:08:18.791Z,66.53
2019-04-06T22:10:47.330Z,66.81
2019-04-06T22:13:14.909Z,62.99
2019-04-06T22:15:42.257Z,62.19
2019-04-06T22:18:09.612Z,63.27
2019-04-06T22:20:36.959Z,62.24
2019-04-06T22:23:04.323Z,62.09
2019-04-06T22:25:31.505Z,63.20
2019-04-06T22:27:58.802Z,62.01
2019-04-06T22:30:26.196Z,62.13
2019-04-06T22:32:54.983Z,63.27
2019-04-06T22:35:31.154Z,63.63
2019-04-06T22:37:58.742Z,64.00
2019-04-06T22:40:26.049Z,64.55
2019-04-06T22:42:53.789Z,64.35
2019-04-06T22:45:22.010Z,63.87
2019-04-06T22:47:49.157Z,63.42
2019-04-06T22:50:16.715Z,64.55
2019-04-06T22:52:44.710Z,66.85
2019-04-06T22:55:12.858Z,64.09
2019-04-06T22:57:40.820Z,64.64
2019-04-06T23:00:10.330Z,64.99
2019-04-06T23:02:47.628Z,63.93
2019-04-06T23:05:28.873Z,65.32
2019-04-06T23:07:56.520Z,64.64
2019-04-06T23:10:23.821Z,66.40
2019-04-06T23:12:51.043Z,67.95
2019-04-06T23:15:18.315Z,66.14
2019-04-06T23:17:45.468Z,65.64
2019-04-06T23:20:12.926Z,65.12
2019-04-06T23:22:40.088Z,66.05
2019-04-06T23:25:07.561Z,66.92
2019-04-06T23:27:35.351Z,65.66
2019-04-06T23:30:04.494Z,65.59
2019-04-06T23:32:31.930Z,65.39
2019-04-06T23:35:02.057Z,66.25
2019-04-06T23:37:28.765Z,66.38
2019-04-06T23:39:56.208Z,68.01
2019-04-06T23:42:23.958Z,69.40
2019-04-06T23:44:51.745Z,68.05
2019-04-06T23:47:19.089Z,67.96
2019-04-06T23:49:46.450Z,67.76
2019-04-06T23:52:13.732Z,66.87
2019-04-06T23:54:40.842Z,66.80
2019-04-06T23:57:08.091Z,67.17
2019-04-06T23:59:35.281Z,67.72
